createdAt,value
2018-08-24T00:50:49.925Z,99.90
2018-08-24T00:53:24.562Z,99.90
2018-08-24T00:55:53.127Z,99.90
2018-08-24T00:58:34.861Z,99.90
2018-08-24T01:01:17.479Z,99.90
2018-08-24T01:06:48.462Z,99.90
2018-08-24T01:09:34.787Z,99.90
2018-08-24T01:12:21.098Z,99.90
2018-08-24T01:17:43.559Z,99.90
2018-08-24T01:23:28.548Z,99.90
2018-08-24T01:26:19.145Z,99.90
2018-08-24T01:28:53.120Z,99.90
2018-08-24T01:31:25.658Z,99.90
2018-08-24T01:36:37.799Z,99.90
2018-08-24T01:39:07.587Z,99.90
2018-08-24T01:41:43.585Z,99.90
2018-08-24T02:03:36.418Z,99.90
2018-08-24T02:06:32.223Z,99.90
2018-08-24T03:26:35.353Z,99.90
2018-08-24T03:29:03.642Z,99.90
2018-08-24T03:31:31.465Z,99.90
2018-08-24T03:33:59.016Z,99.90
2018-08-24T03:36:26.599Z,99.90
2018-08-24T03:38:54.801Z,99.90
2018-08-24T03:41:22.734Z,99.90
2018-08-24T03:43:50.371Z,99.90
2018-08-24T03:46:18.846Z,99.90
2018-08-24T03:48:48.113Z,99.90
2018-08-24T03:51:16.161Z,99.90
2018-08-24T03:53:44.672Z,99.90
2018-08-24T03:56:12.425Z,99.90
2018-08-24T03:58:40.037Z,99.90
2018-08-24T04:01:07.652Z,99.90
2018-08-24T04:03:38.532Z,99.90
2018-08-24T04:06:06.513Z,99.90
2018-08-24T04:08:34.870Z,99.90
2018-08-24T04:11:02.801Z,99.90
2018-08-24T04:13:30.533Z,99.90
2018-08-24T04:15:59.202Z,99.90
2018-08-24T04:18:26.980Z,99.90
2018-08-24T04:20:54.594Z,99.90
2018-08-24T04:23:22.212Z,99.90
2018-08-24T04:25:49.999Z,99.90
2018-08-24T04:28:17.998Z,99.90
2018-08-24T04:30:45.866Z,99.90
2018-08-24T04:33:13.518Z,99.90
2018-08-24T04:35:41.201Z,99.90
2018-08-24T04:38:08.721Z,99.90
2018-08-24T04:40:36.269Z,99.90
2018-08-24T04:43:04.291Z,99.90
2018-08-24T04:45:32.749Z,99.90
2018-08-24T04:48:01.917Z,99.90
2018-08-24T04:50:31.387Z,99.90
2018-08-24T04:52:59.351Z,99.90
2018-08-24T04:55:32.020Z,99.90
2018-08-24T04:58:05.645Z,99.90
2018-08-24T05:00:34.304Z,99.90
2018-08-24T05:03:01.980Z,99.90
2018-08-24T05:05:29.940Z,99.90
2018-08-24T05:07:57.643Z,99.90
2018-08-24T05:10:25.295Z,99.90
2018-08-24T05:12:52.996Z,99.90
2018-08-24T05:15:21.411Z,99.90
2018-08-24T05:17:49.418Z,99.90
2018-08-24T05:20:17.527Z,99.90
2018-08-24T05:22:45.445Z,99.90
2018-08-24T05:25:13.741Z,99.90
2018-08-24T05:27:41.678Z,99.90
2018-08-24T05:30:10.138Z,99.90
2018-08-24T05:32:37.732Z,99.90
2018-08-24T05:35:06.654Z,99.90
2018-08-24T05:37:34.389Z,99.90
2018-08-24T05:40:02.338Z,99.90
2018-08-24T05:42:30.858Z,99.90
2018-08-24T05:44:58.653Z,99.90
2018-08-24T05:47:26.698Z,99.90
2018-08-24T05:49:55.210Z,99.90
2018-08-24T05:52:22.922Z,99.90
2018-08-24T05:54:51.876Z,99.90
2018-08-24T05:57:19.880Z,99.90
2018-08-24T05:59:47.939Z,99.90
2018-08-24T06:02:15.753Z,99.90
2018-08-24T06:04:44.012Z,99.90
2018-08-24T06:07:11.843Z,99.90
2018-08-24T06:09:39.601Z,99.90
2018-08-24T06:12:07.666Z,99.90
2018-08-24T06:14:36.736Z,99.90
2018-08-24T06:17:10.399Z,99.90
2018-08-24T06:19:39.372Z,99.90
2018-08-24T06:22:11.315Z,99.90
2018-08-24T06:24:39.871Z,99.90
2018-08-24T06:27:09.054Z,99.90
2018-08-24T06:29:37.128Z,99.90
2018-08-24T06:32:05.730Z,99.90
2018-08-24T06:34:35.745Z,99.90
2018-08-24T06:37:05.682Z,99.90
2018-08-24T06:39:52.243Z,99.90
2018-08-24T06:42:22.343Z,99.90
2018-08-24T06:44:50.930Z,99.90
2018-08-24T06:47:19.761Z,99.90
2018-08-24T06:50:03.287Z,99.90
2018-08-24T06:52:40.264Z,99.90
2018-08-24T06:55:11.230Z,99.90
2018-08-24T06:57:40.308Z,99.90
2018-08-24T07:00:15.156Z,99.90
2018-08-24T07:02:44.823Z,99.90
2018-08-24T07:05:15.707Z,99.90
2018-08-24T07:07:43.655Z,99.90
2018-08-24T07:10:12.129Z,99.90
2018-08-24T07:12:45.039Z,99.90
2018-08-24T07:15:29.356Z,99.90
2018-08-24T07:21:05.938Z,99.90
2018-08-24T07:23:38.525Z,99.90
2018-08-24T07:26:12.895Z,99.90
2018-08-24T07:28:50.107Z,99.90
2018-08-24T07:37:32.226Z,99.90
2018-08-24T07:43:04.165Z,99.90
2018-08-24T07:45:31.783Z,99.90
2018-08-24T07:47:59.314Z,99.90
2018-08-24T07:50:26.913Z,99.90
2018-08-24T07:52:54.460Z,99.90
2018-08-24T07:55:22.133Z,99.90
2018-08-24T07:57:49.771Z,99.90
2018-08-24T08:00:17.357Z,99.90
2018-08-24T08:02:46.153Z,99.90
2018-08-24T08:05:14.561Z,99.90
2018-08-24T08:07:42.135Z,99.90
2018-08-24T08:10:09.829Z,99.90
2018-08-24T08:12:37.380Z,99.90
2018-08-24T08:15:05.871Z,99.90
2018-08-24T08:17:33.514Z,99.90
2018-08-24T08:20:01.959Z,99.90
2018-08-24T08:22:29.946Z,99.90
2018-08-24T08:24:57.868Z,99.90
2018-08-24T08:27:25.497Z,99.90
2018-08-24T08:29:59.983Z,99.90
2018-08-24T08:32:28.320Z,99.90
2018-08-24T08:34:55.942Z,99.90
2018-08-24T08:37:23.915Z,99.90
2018-08-24T08:39:53.241Z,99.90
2018-08-24T08:42:21.273Z,99.90
2018-08-24T08:44:49.139Z,99.90
2018-08-24T08:47:16.554Z,99.90
2018-08-24T08:49:44.107Z,99.90
2018-08-24T08:52:12.179Z,99.90
2018-08-24T08:54:39.887Z,99.90
2018-08-24T08:57:07.498Z,99.90
2018-08-24T08:59:35.100Z,99.90
2018-08-24T09:02:03.119Z,99.90
2018-08-24T09:04:30.670Z,99.90
2018-08-24T09:06:58.323Z,99.90
2018-08-24T09:09:26.461Z,99.90
2018-08-24T09:11:54.011Z,99.90
2018-08-24T09:14:21.893Z,99.90
2018-08-24T09:16:49.948Z,99.90
2018-08-24T09:19:23.604Z,99.90
2018-08-24T09:21:57.289Z,99.90
2018-08-24T09:24:30.506Z,99.90
2018-08-24T09:27:03.695Z,99.90
2018-08-24T09:29:31.224Z,99.90
2018-08-24T09:31:59.826Z,99.90
2018-08-24T09:34:27.452Z,99.90
2018-08-24T09:39:36.175Z,99.90
2018-08-24T09:42:04.381Z,99.90
2018-08-24T09:44:32.103Z,99.90
2018-08-24T09:47:05.342Z,99.90
2018-08-24T09:49:37.583Z,99.90
2018-08-24T09:52:12.749Z,99.90
2018-08-24T09:54:41.077Z,99.90
2018-08-24T09:57:08.962Z,99.90
2018-08-24T09:59:36.555Z,99.90
2018-08-24T10:02:09.835Z,99.20
2018-08-24T10:04:43.083Z,97.70
2018-08-24T10:07:16.014Z,97.50
2018-08-24T10:09:45.612Z,98.10
2018-08-24T10:12:13.245Z,97.50
2018-08-24T10:14:40.964Z,97.90
2018-08-24T10:17:08.634Z,97.00
2018-08-24T10:19:36.480Z,96.40
2018-08-24T10:22:04.222Z,96.50
2018-08-24T10:24:31.813Z,96.70
2018-08-24T10:26:59.709Z,96.90
2018-08-24T10:29:27.593Z,97.60
2018-08-24T10:31:55.855Z,97.30
2018-08-24T10:34:24.359Z,97.00
2018-08-24T10:36:53.654Z,95.30
2018-08-24T10:39:24.500Z,94.20
2018-08-24T10:41:53.157Z,93.90
2018-08-24T10:44:24.300Z,94.20
2018-08-24T10:46:53.459Z,94.00
2018-08-24T10:52:24.039Z,93.10
2018-08-24T10:54:51.822Z,92.80
2018-08-24T10:57:24.156Z,91.40
2018-08-24T10:59:53.088Z,88.50
2018-08-24T11:02:21.670Z,86.30
2018-08-24T11:05:06.314Z,84.70
2018-08-24T11:07:35.287Z,84.60
2018-08-24T11:10:17.541Z,83.70
2018-08-24T11:12:53.081Z,83.30
2018-08-24T11:15:22.728Z,84.00
2018-08-24T11:18:12.386Z,82.90
2018-08-24T11:20:45.972Z,80.20
2018-08-24T11:23:23.910Z,79.80
2018-08-24T11:26:03.717Z,77.90
2018-08-24T11:34:00.991Z,77.70
2018-08-24T11:36:28.813Z,77.80
2018-08-24T11:41:34.857Z,77.80
2018-08-24T11:44:05.128Z,77.00
2018-08-24T13:03:31.334Z,73.70
2018-08-24T13:06:00.835Z,79.50
2018-08-24T13:08:36.908Z,80.30
2018-08-24T13:11:05.278Z,79.70
2018-08-24T13:13:38.593Z,78.40
2018-08-24T13:16:08.388Z,79.30
2018-08-24T13:18:36.358Z,78.50
2018-08-24T13:21:05.174Z,79.30
2018-08-24T13:23:40.615Z,79.60
2018-08-24T13:26:08.512Z,79.40
2018-08-24T13:28:43.540Z,78.20
2018-08-24T13:31:11.378Z,76.60
2018-08-24T13:33:39.013Z,74.90
2018-08-24T13:36:06.708Z,73.40
2018-08-24T13:38:35.269Z,72.80
2018-08-24T13:41:10.009Z,73.50
2018-08-24T13:44:17.067Z,76.20
2018-08-24T13:46:51.665Z,79.20
2018-08-24T13:49:21.001Z,95.70
2018-08-24T13:51:57.966Z,99.90
2018-08-24T13:54:26.951Z,99.90
2018-08-24T13:57:02.327Z,99.90
2018-08-24T13:59:32.485Z,99.90
2018-08-24T14:02:00.155Z,99.90
2018-08-24T14:04:27.848Z,99.90
2018-08-24T14:06:56.821Z,99.90
2018-08-24T14:09:25.481Z,99.90
2018-08-24T14:11:55.773Z,99.90
2018-08-24T14:14:25.590Z,99.90
2018-08-24T14:16:53.845Z,99.90
2018-08-24T14:19:28.557Z,99.90
2018-08-24T14:21:56.480Z,99.90
2018-08-24T14:24:29.204Z,99.90
2018-08-24T14:26:58.455Z,99.90
2018-08-24T14:29:28.094Z,99.90
2018-08-24T14:34:44.070Z,99.90
2018-08-24T14:37:13.403Z,99.90
2018-08-24T14:42:30.149Z,99.90
2018-08-24T14:45:01.253Z,99.90
2018-08-24T14:47:29.734Z,99.90
2018-08-24T14:52:42.096Z,99.90
2018-08-24T14:55:12.379Z,99.90
2018-08-24T14:57:42.013Z,99.90
2018-08-24T15:00:54.020Z,99.90
2018-08-24T15:03:37.070Z,99.90
2018-08-24T15:06:07.667Z,99.80
2018-08-24T15:11:30.404Z,98.60
2018-08-24T15:16:48.290Z,96.80
2018-08-24T15:22:24.620Z,95.40
2018-08-24T15:25:01.772Z,96.80
2018-08-24T15:27:46.407Z,97.50
2018-08-24T15:32:56.380Z,95.70
2018-08-24T15:38:33.393Z,96.00
2018-08-24T15:41:07.447Z,96.00
2018-08-24T15:46:27.601Z,95.30
2018-08-24T15:52:06.908Z,95.20
2018-08-24T15:55:06.434Z,95.90
2018-08-24T15:57:35.773Z,95.50
2018-08-24T16:00:13.087Z,94.70
2018-08-24T16:03:08.101Z,92.30
2018-08-24T16:05:47.401Z,91.20
2018-08-24T16:08:31.526Z,91.80
2018-08-24T16:11:32.253Z,91.80
2018-08-24T16:27:44.380Z,92.60
2018-08-24T16:30:16.225Z,93.70
2018-08-24T16:32:48.976Z,93.70
2018-08-24T16:35:16.794Z,93.30
2018-08-24T16:37:50.308Z,93.60
2018-08-24T16:40:19.111Z,92.60
2018-08-24T16:42:47.678Z,92.70
2018-08-24T16:45:15.369Z,91.70
2018-08-24T16:47:43.834Z,91.40
2018-08-24T16:50:12.597Z,91.50
2018-08-24T16:52:47.559Z,92.30
2018-08-24T16:55:16.464Z,92.30
2018-08-24T16:57:44.511Z,92.40
2018-08-24T17:00:12.801Z,92.50
2018-08-24T17:02:40.959Z,93.00
2018-08-24T17:05:17.204Z,93.00
2018-08-24T17:07:47.926Z,93.10
2018-08-24T17:10:16.480Z,94.00
2018-08-24T17:12:44.203Z,93.80
2018-08-24T17:15:11.976Z,93.80
2018-08-24T17:17:39.533Z,93.60
2018-08-24T17:20:07.433Z,93.80
2018-08-24T17:22:35.122Z,94.10
2018-08-24T17:25:02.912Z,94.40
2018-08-24T17:27:30.894Z,94.30
2018-08-24T17:29:58.663Z,94.60
2018-08-24T17:32:26.412Z,95.30
2018-08-24T17:34:54.512Z,95.80
2018-08-24T17:37:22.152Z,96.30
2018-08-24T17:39:50.448Z,96.40
2018-08-24T17:42:18.179Z,96.30
2018-08-24T17:44:45.855Z,96.90
2018-08-24T17:47:13.578Z,97.20
2018-08-24T17:49:41.291Z,97.00
2018-08-24T17:52:09.074Z,97.00
2018-08-24T17:54:37.162Z,97.50
2018-08-24T17:57:05.997Z,97.20
2018-08-24T17:59:34.764Z,97.10
2018-08-24T18:02:02.643Z,97.30
2018-08-24T18:04:31.885Z,97.50
2018-08-24T18:07:00.410Z,97.10
2018-08-24T18:09:29.056Z,97.30
2018-08-24T18:11:57.627Z,97.30
2018-08-24T18:14:26.696Z,97.40
2018-08-24T18:16:54.703Z,97.40
2018-08-24T18:19:22.877Z,97.70
2018-08-24T18:21:54.891Z,98.30
2018-08-24T18:24:35.490Z,98.40
2018-08-24T18:27:06.098Z,98.90
2018-08-24T18:29:42.284Z,99.20
2018-08-24T18:32:19.378Z,99.20
2018-08-24T18:35:07.139Z,99.20
2018-08-24T18:40:33.192Z,99.30
2018-08-24T18:43:02.946Z,99.20
2018-08-24T18:45:34.233Z,99.60
2018-08-24T18:51:22.424Z,99.70
2018-08-24T18:53:53.022Z,99.90
2018-08-24T19:01:37.939Z,99.90
2018-08-24T19:04:07.240Z,99.90
2018-08-24T19:06:36.191Z,99.90
2018-08-24T19:09:05.903Z,99.90
2018-08-24T19:11:39.736Z,99.90
2018-08-24T19:14:09.144Z,99.90
2018-08-24T19:16:38.548Z,99.90
2018-08-24T19:19:12.197Z,99.90
2018-08-24T19:21:41.834Z,99.90
2018-08-24T19:24:09.643Z,99.90
2018-08-24T19:26:37.584Z,99.90
2018-08-24T19:29:11.719Z,99.90
2018-08-24T19:31:39.981Z,99.90
2018-08-24T19:34:10.359Z,99.90
2018-08-24T19:36:39.269Z,99.90
2018-08-24T19:39:09.816Z,99.90
2018-08-24T23:24:50.341Z,99.90
2018-08-24T23:27:19.126Z,99.90
2018-08-24T23:29:46.957Z,99.90
2018-08-24T23:32:15.129Z,99.90
2018-08-24T23:34:44.217Z,99.90
2018-08-24T23:37:12.056Z,99.90
2018-08-24T23:39:42.254Z,99.90
2018-08-24T23:42:11.679Z,99.90
2018-08-24T23:44:41.776Z,99.90
2018-08-24T23:47:11.218Z,99.90
2018-08-24T23:49:40.007Z,99.90
2018-08-24T23:52:08.244Z,99.90
2018-08-24T23:54:36.197Z,99.90
2018-08-24T23:57:04.262Z,99.90
2018-08-24T23:59:33.743Z,99.90
